createdAt,value
2023-03-19T00:00:26.633Z,33.32
2023-03-19T00:01:02.561Z,33.33
2023-03-19T00:01:39.255Z,33.27
2023-03-19T00:02:18.033Z,33.26
2023-03-19T00:02:53.836Z,33.23
2023-03-19T00:03:30.253Z,33.37
2023-03-19T00:04:06.521Z,33.30
2023-03-19T00:04:41.774Z,33.26
2023-03-19T00:05:18.502Z,33.29
2023-03-19T00:05:54.802Z,33.31
2023-03-19T00:06:30.761Z,33.39
2023-03-19T00:07:07.040Z,33.34
2023-03-19T00:07:43.085Z,33.38
2023-03-19T00:08:19.261Z,33.29
2023-03-19T00:08:55.356Z,33.32
2023-03-19T00:09:31.432Z,33.24
2023-03-19T00:10:06.860Z,33.18
2023-03-19T00:10:42.826Z,33.20
2023-03-19T00:11:19.304Z,33.27
2023-03-19T00:11:55.999Z,33.32
2023-03-19T00:12:32.202Z,33.52
2023-03-19T00:13:07.851Z,33.17
2023-03-19T00:13:44.657Z,33.05
2023-03-19T00:14:20.576Z,33.22
2023-03-19T00:14:56.590Z,33.15
2023-03-19T00:15:32.523Z,33.09
2023-03-19T00:16:08.448Z,33.07
2023-03-19T00:16:44.507Z,33.22
2023-03-19T00:17:19.938Z,33.21
2023-03-19T00:17:55.963Z,33.29
2023-03-19T00:18:31.965Z,33.29
2023-03-19T00:19:08.494Z,33.11
2023-03-19T00:19:44.028Z,33.09
2023-03-19T00:20:20.208Z,33.22
2023-03-19T00:20:55.606Z,33.17
2023-03-19T00:21:31.399Z,33.23
2023-03-19T00:22:08.082Z,33.16
2023-03-19T00:22:43.749Z,33.16
2023-03-19T00:23:20.080Z,33.17
2023-03-19T00:23:55.777Z,33.15
2023-03-19T00:24:31.742Z,33.23
2023-03-19T00:25:08.225Z,33.18
2023-03-19T00:25:43.754Z,33.23
2023-03-19T00:26:19.354Z,33.19
2023-03-19T00:26:55.460Z,33.31
2023-03-19T00:27:31.026Z,32.97
2023-03-19T00:28:07.476Z,33.08
2023-03-19T00:28:43.185Z,33.19
2023-03-19T00:29:19.169Z,33.21
2023-03-19T00:29:55.091Z,33.16
2023-03-19T00:30:30.806Z,33.12
2023-03-19T00:31:06.781Z,33.05
2023-03-19T00:31:42.177Z,33.15
2023-03-19T00:32:17.969Z,33.03
2023-03-19T00:32:53.555Z,33.14
2023-03-19T00:33:29.519Z,33.07
2023-03-19T00:34:05.304Z,33.08
2023-03-19T00:34:41.574Z,33.14
2023-03-19T00:35:17.508Z,33.02
2023-03-19T00:35:54.037Z,33.07
2023-03-19T00:36:29.634Z,33.00
2023-03-19T00:37:05.380Z,33.11
2023-03-19T00:37:41.402Z,33.07
2023-03-19T00:38:16.994Z,33.08
2023-03-19T00:38:53.156Z,33.09
2023-03-19T00:39:29.794Z,33.14
2023-03-19T00:40:05.981Z,33.21
2023-03-19T00:40:41.592Z,33.11
2023-03-19T00:41:17.603Z,33.14
2023-03-19T00:41:53.451Z,33.17
2023-03-19T00:42:28.661Z,33.13
2023-03-19T00:43:04.916Z,33.24
2023-03-19T00:43:40.508Z,33.15
2023-03-19T00:44:16.077Z,33.09
2023-03-19T00:44:52.095Z,33.22
2023-03-19T00:45:27.953Z,33.17
2023-03-19T00:46:04.328Z,33.25
2023-03-19T00:46:40.335Z,33.20
2023-03-19T00:47:16.194Z,33.21
2023-03-19T00:47:51.745Z,33.25
2023-03-19T00:48:27.772Z,33.28
2023-03-19T00:49:03.460Z,33.34
2023-03-19T00:49:39.553Z,33.41
2023-03-19T00:50:16.245Z,33.12
2023-03-19T00:50:51.775Z,33.11
2023-03-19T00:51:27.841Z,33.18
2023-03-19T00:52:04.165Z,33.05
2023-03-19T00:52:40.145Z,33.24
2023-03-19T00:53:15.294Z,33.17
2023-03-19T00:53:51.202Z,33.14
2023-03-19T00:54:27.304Z,33.13
2023-03-19T00:55:03.410Z,33.16
2023-03-19T00:55:39.739Z,33.33
2023-03-19T00:56:15.626Z,33.31
2023-03-19T00:56:51.645Z,33.25
2023-03-19T00:57:27.866Z,33.05
2023-03-19T00:58:03.432Z,33.07
2023-03-19T00:58:38.946Z,33.19
2023-03-19T00:59:14.652Z,33.32
2023-03-19T00:59:49.822Z,33.06
2023-03-19T01:00:25.353Z,33.09
2023-03-19T01:01:01.224Z,32.96
2023-03-19T01:01:36.698Z,33.04
2023-03-19T01:02:12.619Z,33.14
2023-03-19T01:02:49.125Z,33.04
2023-03-19T01:03:25.083Z,33.08
2023-03-19T01:04:01.024Z,33.10
2023-03-19T01:04:36.987Z,33.07
2023-03-19T01:05:12.617Z,33.18
2023-03-19T01:05:47.984Z,33.16
2023-03-19T01:06:24.732Z,32.96
2023-03-19T01:07:35.143Z,32.95
2023-03-19T01:08:11.203Z,33.21
2023-03-19T01:08:46.723Z,33.12
2023-03-19T01:09:22.833Z,33.13
2023-03-19T01:09:58.251Z,33.34
2023-03-19T01:10:33.939Z,33.09
2023-03-19T01:11:09.439Z,32.98
2023-03-19T01:11:45.229Z,33.12
2023-03-19T01:12:20.817Z,33.12
2023-03-19T01:12:57.017Z,32.99
2023-03-19T01:13:32.960Z,33.07
2023-03-19T01:14:09.151Z,32.98
2023-03-19T01:14:45.474Z,32.97
2023-03-19T01:15:54.798Z,33.09
2023-03-19T01:16:31.113Z,32.93
2023-03-19T01:17:06.983Z,33.05
2023-03-19T01:17:42.551Z,33.06
2023-03-19T01:18:18.380Z,32.83
2023-03-19T01:18:54.297Z,33.20
2023-03-19T01:19:29.819Z,33.15
2023-03-19T01:20:06.138Z,32.88
2023-03-19T01:23:36.401Z,33.15
2023-03-19T01:24:23.096Z,33.05
2023-03-19T01:25:07.634Z,33.13
2023-03-19T01:25:49.318Z,33.11
2023-03-19T01:26:37.653Z,33.05
2023-03-19T01:27:25.597Z,33.24
2023-03-19T01:28:10.789Z,32.98
2023-03-19T01:28:54.350Z,33.08
2023-03-19T01:29:40.856Z,33.04
2023-03-19T01:30:25.498Z,33.07
2023-03-19T01:31:13.849Z,33.11
2023-03-19T01:31:57.393Z,33.02
2023-03-19T01:32:43.630Z,32.96
2023-03-19T01:33:31.040Z,32.98
2023-03-19T01:34:14.889Z,33.06
2023-03-19T01:34:59.697Z,33.07
2023-03-19T01:35:47.021Z,33.14
2023-03-19T01:36:31.908Z,33.16
2023-03-19T01:37:19.888Z,33.04
2023-03-19T01:38:08.012Z,33.08
2023-03-19T01:38:55.793Z,33.19
2023-03-19T01:39:43.788Z,33.18
2023-03-19T01:40:25.962Z,33.15
2023-03-19T01:41:12.348Z,33.10
2023-03-19T01:41:59.015Z,32.96
2023-03-19T01:42:42.911Z,33.10
2023-03-19T01:43:29.128Z,33.06
2023-03-19T01:44:16.958Z,33.10
2023-03-19T01:45:05.102Z,33.09
2023-03-19T01:45:52.138Z,33.03
2023-03-19T01:46:36.032Z,33.01
2023-03-19T01:47:20.462Z,33.17
2023-03-19T01:48:04.089Z,33.10
2023-03-19T01:48:46.909Z,33.16
2023-03-19T01:49:30.550Z,33.13
2023-03-19T01:50:13.855Z,33.02
2023-03-19T01:50:55.659Z,32.98
2023-03-19T01:51:39.968Z,33.03
2023-03-19T01:52:23.971Z,33.10
2023-03-19T01:53:07.345Z,33.01
2023-03-19T01:53:51.861Z,33.10
2023-03-19T01:54:36.658Z,33.01
2023-03-19T01:55:24.642Z,33.05
2023-03-19T01:56:09.884Z,33.01
2023-03-19T01:56:54.838Z,32.92
2023-03-19T01:57:38.781Z,33.21
2023-03-19T01:58:25.918Z,33.10
2023-03-19T01:59:09.150Z,33.10
2023-03-19T01:59:53.936Z,32.87
2023-03-19T02:00:40.846Z,33.00
2023-03-19T02:01:23.732Z,33.15
2023-03-19T02:02:09.000Z,32.93
2023-03-19T02:02:53.634Z,33.14
2023-03-19T02:03:36.818Z,33.11
2023-03-19T02:04:21.360Z,32.97
2023-03-19T02:05:04.040Z,33.11
2023-03-19T02:05:48.378Z,33.13
2023-03-19T02:06:30.085Z,32.93
2023-03-19T02:07:14.079Z,33.07
2023-03-19T02:07:58.527Z,33.04
2023-03-19T02:08:43.312Z,33.04
2023-03-19T02:09:26.782Z,32.89
2023-03-19T02:10:10.922Z,33.02
2023-03-19T02:10:56.005Z,33.04
2023-03-19T02:11:38.359Z,33.12
2023-03-19T02:12:26.199Z,33.02
2023-03-19T02:13:10.689Z,33.01
2023-03-19T02:13:55.448Z,33.06
2023-03-19T02:14:43.429Z,32.97
2023-03-19T02:15:30.323Z,33.02
2023-03-19T02:16:13.963Z,33.05
2023-03-19T02:16:56.580Z,32.92
2023-03-19T02:17:40.941Z,32.92
2023-03-19T02:18:25.489Z,32.95
2023-03-19T02:19:09.553Z,33.06
2023-03-19T02:19:53.186Z,33.07
2023-03-19T02:20:38.246Z,33.12
2023-03-19T02:21:25.291Z,32.98
2023-03-19T02:22:07.368Z,33.07
2023-03-19T02:22:50.346Z,32.90
2023-03-19T02:23:35.785Z,32.98
2023-03-19T02:24:24.163Z,33.10
2023-03-19T02:25:08.605Z,33.04
2023-03-19T02:25:51.314Z,32.89
2023-03-19T02:26:37.167Z,32.92
2023-03-19T02:27:21.850Z,32.84
2023-03-19T02:28:09.473Z,32.82
2023-03-19T02:28:56.752Z,32.93
2023-03-19T02:29:43.960Z,32.98
2023-03-19T02:30:28.090Z,32.96
2023-03-19T02:31:15.503Z,32.95
2023-03-19T02:32:00.405Z,32.98
2023-03-19T02:32:46.780Z,32.91
2023-03-19T02:33:30.798Z,32.88
2023-03-19T02:34:14.800Z,32.97
2023-03-19T02:35:02.548Z,33.06
2023-03-19T02:35:43.979Z,33.00
2023-03-19T02:36:30.576Z,32.89
2023-03-19T02:37:17.525Z,33.01
2023-03-19T02:38:02.670Z,32.96
2023-03-19T02:38:49.976Z,32.96
2023-03-19T02:39:35.250Z,33.07
2023-03-19T02:40:23.131Z,32.96
2023-03-19T02:41:08.921Z,32.96
2023-03-19T02:41:53.177Z,32.87
2023-03-19T02:42:39.085Z,32.91
2023-03-19T02:43:26.332Z,32.90
2023-03-19T02:44:13.822Z,33.03
2023-03-19T02:44:58.832Z,32.94
2023-03-19T02:45:43.862Z,32.84
2023-03-19T02:46:28.101Z,33.02
2023-03-19T02:47:12.587Z,32.89
2023-03-19T02:47:55.331Z,32.83
2023-03-19T02:48:39.590Z,32.83
2023-03-19T02:49:24.637Z,32.98
2023-03-19T02:50:09.481Z,32.85
2023-03-19T02:50:54.875Z,33.00
2023-03-19T02:51:38.189Z,32.90
2023-03-19T02:52:23.218Z,33.08
2023-03-19T02:53:08.496Z,33.01
2023-03-19T02:53:54.800Z,32.84
2023-03-19T02:54:37.384Z,33.02
2023-03-19T02:55:22.035Z,33.00
2023-03-19T02:56:06.742Z,32.87
2023-03-19T02:56:47.740Z,32.76
2023-03-19T02:57:32.650Z,33.00
2023-03-19T02:58:19.883Z,32.82
2023-03-19T02:59:04.075Z,32.85
2023-03-19T02:59:47.855Z,33.08
2023-03-19T03:00:33.391Z,32.89
2023-03-19T03:01:17.891Z,32.88
2023-03-19T03:01:59.653Z,32.86
2023-03-19T03:02:45.018Z,32.74
2023-03-19T03:03:31.810Z,33.04
2023-03-19T03:04:15.445Z,32.70
2023-03-19T03:05:00.090Z,32.88
2023-03-19T03:05:47.280Z,32.88
2023-03-19T03:06:32.741Z,32.74
2023-03-19T03:07:19.686Z,32.80
2023-03-19T03:08:04.141Z,33.01
2023-03-19T03:08:48.659Z,32.92
2023-03-19T03:09:32.854Z,32.97
2023-03-19T03:10:20.806Z,32.81
2023-03-19T03:11:05.443Z,32.90
2023-03-19T03:11:53.356Z,32.93
2023-03-19T03:12:38.456Z,32.90
2023-03-19T03:13:22.184Z,32.96
2023-03-19T03:14:07.000Z,32.95
2023-03-19T03:14:50.481Z,32.84
2023-03-19T03:15:36.030Z,32.92
2023-03-19T03:16:21.646Z,32.90
2023-03-19T03:17:06.642Z,32.87
2023-03-19T03:17:51.103Z,32.87
2023-03-19T03:18:35.850Z,32.90
2023-03-19T03:19:22.988Z,32.87
2023-03-19T03:20:08.117Z,32.89
2023-03-19T03:20:52.647Z,32.98
2023-03-19T03:21:38.899Z,32.75
2023-03-19T03:22:23.110Z,32.87
2023-03-19T03:23:07.040Z,32.89
2023-03-19T03:23:49.819Z,32.87
2023-03-19T03:24:34.269Z,32.85
2023-03-19T03:25:18.647Z,32.94
2023-03-19T03:25:59.345Z,33.06
2023-03-19T03:26:44.532Z,32.79
2023-03-19T03:27:30.041Z,32.83
2023-03-19T03:28:14.716Z,32.72
2023-03-19T03:29:01.716Z,32.83
2023-03-19T03:29:46.133Z,32.93
2023-03-19T03:30:32.312Z,32.90
2023-03-19T03:31:18.233Z,32.91
2023-03-19T03:32:02.058Z,32.86
2023-03-19T03:32:46.886Z,32.91
2023-03-19T03:33:32.337Z,32.93
2023-03-19T03:34:20.150Z,32.96
2023-03-19T03:35:05.434Z,32.86
2023-03-19T03:35:53.032Z,32.76
2023-03-19T03:36:35.928Z,32.76
2023-03-19T03:37:19.524Z,32.89
2023-03-19T03:38:05.404Z,32.93
2023-03-19T03:38:50.457Z,32.90
2023-03-19T03:39:37.585Z,32.91
2023-03-19T03:40:24.989Z,32.91
2023-03-19T03:41:09.012Z,32.91
2023-03-19T03:41:50.595Z,32.98
2023-03-19T03:42:34.737Z,32.76
2023-03-19T03:43:18.930Z,32.85
2023-03-19T03:44:02.820Z,32.88
2023-03-19T03:44:50.705Z,32.88
2023-03-19T03:45:35.576Z,32.89
2023-03-19T03:46:19.630Z,33.06
2023-03-19T03:47:00.635Z,32.93
2023-03-19T03:47:47.091Z,32.94
2023-03-19T03:48:31.579Z,32.83
2023-03-19T03:49:16.539Z,32.82
2023-03-19T03:50:00.169Z,32.84
2023-03-19T03:50:44.425Z,32.96
2023-03-19T03:51:29.784Z,32.89
2023-03-19T03:52:11.137Z,33.11
2023-03-19T03:52:54.664Z,32.93
2023-03-19T03:53:41.173Z,32.91
2023-03-19T03:54:24.914Z,32.83
2023-03-19T03:55:09.935Z,32.82
2023-03-19T03:55:57.830Z,32.85
2023-03-19T03:56:44.138Z,33.05
2023-03-19T03:57:30.789Z,32.91
2023-03-19T03:58:12.799Z,32.83
2023-03-19T03:58:57.347Z,32.91
2023-03-19T03:59:41.622Z,32.66
2023-03-19T04:00:29.048Z,32.91
2023-03-19T04:01:14.410Z,33.17
2023-03-19T04:02:02.555Z,32.83
2023-03-19T04:02:45.097Z,32.96
2023-03-19T04:03:32.000Z,32.89
2023-03-19T04:04:19.724Z,32.83
2023-03-19T04:05:05.869Z,32.93
2023-03-19T04:05:50.978Z,32.89
2023-03-19T04:06:37.993Z,32.77
2023-03-19T04:07:25.042Z,32.93
2023-03-19T04:08:08.554Z,32.73
2023-03-19T04:08:53.443Z,32.77
2023-03-19T04:09:37.083Z,32.92
2023-03-19T04:10:20.884Z,32.88
2023-03-19T04:11:15.465Z,32.96
2023-03-19T04:12:03.114Z,33.09
2023-03-19T04:12:47.944Z,32.95
2023-03-19T04:13:28.781Z,32.92
2023-03-19T04:14:16.625Z,33.03
2023-03-19T04:15:02.680Z,32.85
2023-03-19T04:15:46.959Z,32.93
2023-03-19T04:16:30.983Z,32.95
2023-03-19T04:17:18.152Z,32.90
2023-03-19T04:18:01.196Z,33.02
2023-03-19T04:18:44.615Z,32.76
2023-03-19T04:19:28.946Z,32.87
2023-03-19T04:20:13.276Z,32.88
2023-03-19T04:20:55.877Z,32.90
2023-03-19T04:21:39.562Z,32.95
2023-03-19T04:22:23.136Z,32.69
2023-03-19T04:23:06.649Z,32.95
2023-03-19T04:23:48.564Z,32.94
2023-03-19T04:24:30.981Z,33.07
2023-03-19T04:25:16.653Z,32.81
2023-03-19T04:26:01.112Z,32.89
2023-03-19T04:26:45.526Z,32.82
2023-03-19T04:27:29.797Z,32.82
2023-03-19T04:28:14.444Z,32.93
2023-03-19T04:28:57.426Z,32.93
2023-03-19T04:29:41.929Z,32.94
2023-03-19T04:30:25.405Z,32.92
2023-03-19T04:31:10.454Z,32.81
2023-03-19T04:31:54.177Z,32.85
2023-03-19T04:32:37.872Z,32.77
2023-03-19T04:33:21.831Z,33.17
2023-03-19T04:34:03.772Z,32.94
2023-03-19T04:34:47.947Z,32.87
2023-03-19T04:35:32.824Z,32.76
2023-03-19T04:36:16.468Z,32.94
2023-03-19T04:37:00.720Z,32.94
2023-03-19T04:37:47.503Z,32.92
2023-03-19T04:38:31.314Z,32.67
2023-03-19T04:39:12.545Z,32.79
2023-03-19T04:39:58.621Z,32.96
2023-03-19T04:40:43.061Z,32.84
2023-03-19T04:41:28.023Z,32.90
2023-03-19T04:42:12.582Z,32.79
2023-03-19T04:42:57.128Z,32.67
2023-03-19T04:43:42.903Z,33.02
2023-03-19T04:44:25.073Z,32.83
2023-03-19T04:45:09.111Z,32.79
2023-03-19T04:45:56.543Z,32.82
2023-03-19T04:46:41.062Z,32.80
2023-03-19T04:47:24.841Z,32.91
2023-03-19T04:48:08.898Z,32.86
2023-03-19T04:48:56.328Z,32.93
2023-03-19T04:49:39.449Z,32.94
2023-03-19T04:50:23.477Z,32.77
2023-03-19T04:51:07.797Z,32.93
2023-03-19T04:51:55.121Z,32.90
2023-03-19T04:52:40.880Z,32.81
2023-03-19T04:53:26.936Z,32.93
2023-03-19T04:54:14.677Z,32.93
2023-03-19T04:54:57.002Z,32.93
2023-03-19T04:55:42.974Z,32.93
2023-03-19T04:56:26.727Z,33.01
2023-03-19T04:57:09.306Z,32.96
2023-03-19T04:57:54.226Z,32.93
2023-03-19T04:58:41.019Z,32.92
2023-03-19T04:59:26.845Z,32.94
2023-03-19T05:00:12.143Z,32.91
2023-03-19T05:00:56.898Z,32.87
2023-03-19T05:01:39.853Z,32.89
2023-03-19T05:02:24.277Z,33.01
2023-03-19T05:03:09.011Z,33.09
2023-03-19T05:03:53.465Z,32.92
2023-03-19T05:04:37.602Z,32.94
2023-03-19T05:05:20.056Z,32.89
2023-03-19T05:06:04.400Z,33.12
2023-03-19T05:06:48.230Z,32.94
2023-03-19T05:07:29.690Z,32.91
2023-03-19T05:08:15.592Z,32.93
2023-03-19T05:09:01.853Z,32.94
2023-03-19T05:09:46.380Z,32.87
2023-03-19T05:10:29.123Z,32.92
2023-03-19T05:11:15.538Z,32.86
2023-03-19T05:12:01.842Z,32.93
2023-03-19T05:12:45.458Z,32.75
2023-03-19T05:13:30.962Z,32.90
2023-03-19T05:14:16.581Z,32.93
2023-03-19T05:15:03.350Z,32.84
2023-03-19T05:15:49.011Z,32.71
2023-03-19T05:16:33.874Z,32.77
2023-03-19T05:17:18.208Z,32.91
2023-03-19T05:18:00.061Z,32.77
2023-03-19T05:18:45.502Z,32.75
2023-03-19T05:19:30.593Z,32.91
2023-03-19T05:20:16.123Z,32.85
2023-03-19T05:21:01.254Z,32.89
2023-03-19T05:21:46.847Z,32.87
2023-03-19T05:22:32.124Z,32.93
2023-03-19T05:23:15.206Z,32.76
2023-03-19T05:24:00.712Z,32.86
2023-03-19T05:24:44.894Z,33.01
2023-03-19T05:25:31.870Z,32.92
2023-03-19T05:26:16.534Z,32.81
2023-03-19T05:27:01.317Z,32.89
2023-03-19T05:27:48.430Z,32.78
2023-03-19T05:28:31.721Z,32.82
2023-03-19T05:29:17.033Z,32.76
2023-03-19T05:30:01.042Z,32.79
2023-03-19T05:30:46.813Z,32.72
2023-03-19T05:31:32.550Z,32.72
2023-03-19T05:32:20.410Z,32.85
2023-03-19T05:33:08.162Z,32.72
2023-03-19T05:33:54.658Z,32.78
2023-03-19T05:34:39.822Z,32.84
2023-03-19T05:35:27.572Z,32.83
2023-03-19T05:36:10.843Z,32.86
2023-03-19T05:36:55.434Z,32.83
2023-03-19T05:37:39.666Z,32.74
2023-03-19T05:38:23.119Z,32.84
2023-03-19T05:39:05.624Z,32.76
2023-03-19T05:39:49.821Z,32.82
2023-03-19T05:40:33.917Z,32.75
2023-03-19T05:41:17.373Z,32.82
2023-03-19T05:42:02.161Z,32.80
2023-03-19T05:42:45.343Z,32.70
2023-03-19T05:43:29.854Z,32.83
2023-03-19T05:44:17.074Z,32.82
2023-03-19T05:45:00.137Z,33.02
2023-03-19T05:45:43.436Z,32.82
2023-03-19T05:46:29.214Z,32.90
2023-03-19T05:47:17.332Z,32.76
2023-03-19T05:48:05.265Z,32.88
2023-03-19T05:48:53.134Z,32.92
2023-03-19T05:49:40.116Z,32.85
2023-03-19T05:50:24.814Z,32.97
2023-03-19T05:51:12.273Z,32.97
2023-03-19T05:52:00.720Z,33.04
2023-03-19T05:52:48.241Z,32.95
2023-03-19T05:53:31.479Z,32.87
2023-03-19T05:54:16.948Z,33.00
2023-03-19T05:54:59.310Z,32.98
2023-03-19T05:55:45.567Z,33.00
2023-03-19T05:56:33.856Z,33.03
2023-03-19T05:57:22.286Z,32.84
2023-03-19T05:58:07.263Z,32.94
2023-03-19T05:58:55.540Z,32.83
2023-03-19T05:59:41.385Z,32.88
2023-03-19T06:00:26.822Z,33.01
2023-03-19T06:01:14.781Z,33.04
2023-03-19T06:01:58.760Z,32.87
2023-03-19T06:02:43.342Z,32.96
2023-03-19T06:03:31.694Z,32.92
2023-03-19T06:04:19.563Z,32.91
2023-03-19T06:05:04.086Z,32.95
2023-03-19T06:05:46.432Z,32.91
2023-03-19T06:06:31.075Z,32.75
2023-03-19T06:07:18.225Z,32.90
2023-03-19T06:08:01.175Z,32.83
2023-03-19T06:08:45.921Z,32.73
2023-03-19T06:09:32.391Z,32.95
2023-03-19T06:10:16.771Z,33.02
2023-03-19T06:10:57.975Z,32.82
2023-03-19T06:11:44.424Z,32.88
2023-03-19T06:12:28.500Z,32.92
2023-03-19T06:13:12.287Z,32.86
2023-03-19T06:13:55.965Z,32.74
2023-03-19T06:14:40.317Z,32.93
2023-03-19T06:15:24.269Z,32.85
2023-03-19T06:16:07.096Z,32.90
2023-03-19T06:16:50.892Z,32.91
2023-03-19T06:17:34.883Z,32.86
2023-03-19T06:18:21.993Z,32.98
2023-03-19T06:19:06.267Z,32.80
2023-03-19T06:19:53.244Z,32.91
2023-03-19T06:20:38.638Z,32.92
2023-03-19T06:21:19.945Z,32.83
2023-03-19T06:22:03.724Z,32.93
2023-03-19T06:22:48.651Z,32.93
2023-03-19T06:23:32.533Z,32.86
2023-03-19T06:24:16.785Z,32.83
2023-03-19T06:25:00.374Z,32.84
2023-03-19T06:25:44.982Z,32.83
2023-03-19T06:26:25.952Z,32.79
2023-03-19T06:27:13.610Z,32.86
2023-03-19T06:27:56.544Z,32.74
2023-03-19T06:28:38.370Z,32.91
2023-03-19T06:29:23.955Z,32.73
2023-03-19T06:30:10.010Z,32.92
2023-03-19T06:30:57.543Z,32.96
2023-03-19T06:31:41.137Z,32.85
2023-03-19T06:32:25.017Z,32.94
2023-03-19T06:33:09.583Z,32.70
2023-03-19T06:33:51.706Z,32.85
2023-03-19T06:34:35.167Z,32.83
2023-03-19T06:35:20.296Z,32.72
2023-03-19T06:36:04.042Z,32.91
2023-03-19T06:36:49.183Z,32.83
2023-03-19T06:37:34.519Z,32.76
2023-03-19T06:38:19.660Z,32.90
2023-03-19T06:39:01.816Z,32.81
2023-03-19T06:39:47.293Z,32.89
2023-03-19T06:40:32.341Z,32.98
2023-03-19T06:41:15.764Z,32.90
2023-03-19T06:42:00.862Z,32.80
2023-03-19T06:42:48.406Z,32.90
2023-03-19T06:43:32.777Z,32.92
2023-03-19T06:44:19.228Z,32.78
2023-03-19T06:45:02.691Z,32.97
2023-03-19T06:45:51.882Z,32.88
2023-03-19T06:46:39.826Z,32.76
2023-03-19T06:47:28.087Z,32.79
2023-03-19T06:48:16.703Z,32.92
2023-03-19T06:49:00.966Z,32.76
2023-03-19T06:49:48.328Z,32.79
2023-03-19T06:50:33.240Z,32.89
2023-03-19T06:51:18.675Z,32.88
2023-03-19T06:52:04.106Z,32.83
2023-03-19T06:52:51.993Z,32.90
2023-03-19T06:53:36.366Z,32.80
2023-03-19T06:54:18.784Z,32.84
2023-03-19T06:55:05.189Z,32.84
2023-03-19T06:55:52.666Z,32.84
2023-03-19T06:56:37.637Z,32.82
2023-03-19T06:57:25.236Z,32.83
2023-03-19T06:58:12.201Z,32.88
2023-03-19T06:59:01.118Z,32.87
2023-03-19T06:59:46.610Z,32.81
2023-03-19T07:00:31.356Z,32.88
2023-03-19T07:01:14.378Z,32.67
2023-03-19T07:01:59.290Z,32.76
2023-03-19T07:02:46.982Z,32.89
2023-03-19T07:03:30.857Z,33.10
2023-03-19T07:04:14.311Z,32.90
2023-03-19T07:04:56.911Z,32.94
2023-03-19T07:05:41.341Z,32.94
2023-03-19T07:06:25.071Z,32.95
2023-03-19T07:07:09.906Z,32.88
2023-03-19T07:07:53.019Z,32.84
2023-03-19T07:08:37.558Z,32.92
2023-03-19T07:09:22.167Z,32.89
2023-03-19T07:10:05.165Z,32.85
2023-03-19T07:10:48.910Z,32.77
2023-03-19T07:11:35.215Z,32.92
2023-03-19T07:12:16.984Z,32.98
2023-03-19T07:13:01.027Z,32.88
2023-03-19T07:13:38.044Z,32.93
2023-03-19T07:14:09.515Z,32.93
2023-03-19T07:14:40.920Z,32.89
2023-03-19T07:15:12.405Z,32.93
2023-03-19T07:15:43.823Z,32.92
2023-03-19T07:16:15.367Z,32.92
2023-03-19T07:16:48.007Z,33.09
2023-03-19T07:17:19.527Z,32.92
2023-03-19T07:17:50.940Z,33.01
2023-03-19T07:18:22.432Z,32.92
2023-03-19T07:18:54.419Z,33.12
2023-03-19T07:19:25.851Z,32.86
2023-03-19T07:19:57.300Z,32.88
2023-03-19T07:20:29.421Z,32.94
2023-03-19T07:21:00.884Z,33.01
2023-03-19T07:21:34.633Z,32.97
2023-03-19T07:22:06.084Z,32.84
2023-03-19T07:22:37.523Z,32.91
2023-03-19T07:23:08.989Z,32.93
2023-03-19T07:23:40.424Z,33.02
2023-03-19T07:24:15.859Z,33.10
2023-03-19T07:24:47.304Z,32.84
2023-03-19T07:25:18.762Z,33.01
2023-03-19T07:25:50.240Z,33.01
2023-03-19T07:26:21.737Z,33.04
2023-03-19T07:26:53.158Z,33.08
2023-03-19T07:27:24.576Z,33.09
2023-03-19T07:27:56.229Z,33.05
2023-03-19T07:28:27.734Z,32.99
2023-03-19T07:28:59.222Z,32.94
2023-03-19T07:29:30.684Z,33.00
2023-03-19T07:30:02.168Z,32.89
2023-03-19T07:30:33.765Z,32.94
2023-03-19T07:31:08.490Z,32.87
2023-03-19T07:31:40.032Z,32.86
2023-03-19T07:32:11.490Z,32.96
2023-03-19T07:32:42.975Z,33.06
2023-03-19T07:33:17.526Z,33.02
2023-03-19T07:33:48.991Z,33.02
2023-03-19T07:34:23.452Z,32.93
2023-03-19T07:34:54.992Z,33.12
2023-03-19T07:35:26.497Z,33.07
2023-03-19T07:35:57.986Z,33.00
2023-03-19T07:36:29.588Z,32.85
2023-03-19T07:37:01.088Z,33.02
2023-03-19T07:37:32.547Z,32.95
2023-03-19T07:38:04.029Z,33.02
2023-03-19T07:38:35.539Z,32.92
2023-03-19T07:39:06.953Z,33.00
2023-03-19T07:39:38.422Z,32.74
2023-03-19T07:40:11.709Z,32.93
2023-03-19T07:40:51.328Z,32.89
2023-03-19T07:41:30.756Z,33.02
2023-03-19T07:42:02.190Z,32.99
2023-03-19T07:42:33.577Z,33.03
2023-03-19T07:43:05.032Z,33.02
2023-03-19T07:43:39.288Z,32.98
2023-03-19T07:44:10.856Z,32.97
2023-03-19T07:44:44.010Z,32.95
2023-03-19T07:45:15.386Z,33.07
2023-03-19T07:45:46.883Z,33.08
2023-03-19T07:46:18.443Z,33.11
2023-03-19T07:46:52.350Z,32.94
2023-03-19T07:47:28.960Z,32.94
2023-03-19T07:48:00.940Z,33.15
2023-03-19T07:48:32.363Z,33.07
2023-03-19T07:49:03.780Z,33.20
2023-03-19T07:49:35.237Z,33.06
2023-03-19T07:50:06.647Z,32.92
2023-03-19T07:50:38.163Z,32.95
2023-03-19T07:51:09.668Z,33.06
2023-03-19T07:51:41.092Z,32.97
2023-03-19T07:52:12.602Z,32.98
2023-03-19T07:52:47.101Z,32.89
2023-03-19T07:53:18.572Z,33.09
2023-03-19T07:53:51.809Z,33.01
2023-03-19T07:54:25.452Z,33.14
2023-03-19T07:54:58.424Z,33.19
2023-03-19T07:55:29.873Z,33.14
2023-03-19T07:56:03.888Z,33.04
2023-03-19T07:56:35.421Z,33.09
2023-03-19T07:57:07.082Z,33.10
2023-03-19T07:57:38.621Z,33.12
2023-03-19T07:58:10.065Z,33.19
2023-03-19T07:58:44.650Z,32.96
2023-03-19T07:59:16.065Z,33.07
2023-03-19T07:59:47.490Z,33.09
2023-03-19T08:00:18.960Z,32.91
2023-03-19T08:00:50.534Z,33.10
2023-03-19T08:01:21.964Z,32.89
2023-03-19T08:01:53.431Z,32.93
2023-03-19T08:02:25.000Z,33.09
2023-03-19T08:02:56.495Z,32.90
2023-03-19T08:03:28.025Z,32.85
2023-03-19T08:03:59.498Z,32.97
2023-03-19T08:04:31.060Z,32.91
2023-03-19T08:05:02.593Z,32.92
2023-03-19T08:05:34.105Z,32.97
2023-03-19T08:06:05.570Z,33.05
2023-03-19T08:06:37.030Z,32.88
2023-03-19T08:07:08.448Z,33.00
2023-03-19T08:07:39.910Z,33.00
2023-03-19T08:08:11.331Z,33.06
2023-03-19T08:08:42.813Z,33.04
2023-03-19T08:09:17.937Z,33.07
2023-03-19T08:09:49.500Z,33.02
2023-03-19T08:10:21.053Z,33.17
2023-03-19T08:10:52.449Z,33.03
2023-03-19T08:11:23.910Z,33.14
2023-03-19T08:11:58.353Z,33.11
2023-03-19T08:12:32.512Z,33.19
2023-03-19T08:13:03.950Z,33.08
2023-03-19T08:13:35.373Z,33.11
2023-03-19T08:14:06.802Z,33.00
2023-03-19T08:14:38.273Z,33.14
2023-03-19T08:15:09.797Z,33.07
2023-03-19T08:15:41.305Z,33.04
2023-03-19T08:16:12.796Z,32.92
2023-03-19T08:16:44.237Z,33.02
2023-03-19T08:17:15.646Z,32.96
2023-03-19T08:17:47.096Z,33.12
2023-03-19T08:18:18.590Z,33.09
2023-03-19T08:18:52.548Z,33.06
2023-03-19T08:19:24.161Z,33.12
2023-03-19T08:19:55.735Z,33.07
2023-03-19T08:20:27.257Z,32.96
2023-03-19T08:20:58.861Z,33.17
2023-03-19T08:21:30.297Z,33.07
2023-03-19T08:22:04.638Z,33.02
2023-03-19T08:22:36.038Z,33.15
2023-03-19T08:23:07.468Z,32.97
2023-03-19T08:23:38.864Z,33.05
2023-03-19T08:24:10.316Z,33.01
2023-03-19T08:24:41.739Z,32.87
2023-03-19T08:25:13.215Z,32.84
2023-03-19T08:25:47.018Z,32.99
2023-03-19T08:26:18.506Z,32.89
2023-03-19T08:26:49.904Z,33.18
2023-03-19T08:27:21.365Z,33.02
2023-03-19T08:27:55.700Z,33.08
2023-03-19T08:28:29.953Z,32.88
2023-03-19T08:29:01.578Z,33.01
2023-03-19T08:29:33.022Z,33.05
2023-03-19T08:30:04.373Z,33.15
2023-03-19T08:30:36.333Z,33.16
2023-03-19T08:31:07.975Z,33.07
2023-03-19T08:31:42.107Z,33.01
2023-03-19T08:32:13.579Z,33.15
2023-03-19T08:32:45.087Z,33.04
2023-03-19T08:33:16.559Z,33.07
2023-03-19T08:33:48.020Z,33.17
2023-03-19T08:34:19.478Z,32.98
2023-03-19T08:34:53.782Z,33.03
2023-03-19T08:35:25.359Z,33.14
2023-03-19T08:35:56.932Z,33.09
2023-03-19T08:36:28.558Z,33.15
2023-03-19T08:36:59.997Z,33.08
2023-03-19T08:37:31.470Z,33.23
2023-03-19T08:38:02.935Z,33.11
2023-03-19T08:38:34.415Z,33.17
2023-03-19T08:39:07.840Z,33.17
2023-03-19T08:39:39.374Z,33.31
2023-03-19T08:40:10.860Z,33.13
2023-03-19T08:40:42.314Z,33.10
2023-03-19T08:41:13.765Z,33.22
2023-03-19T08:41:45.246Z,33.11
2023-03-19T08:42:16.746Z,33.14
2023-03-19T08:42:48.230Z,33.16
2023-03-19T08:43:22.309Z,33.16
2023-03-19T08:43:53.718Z,33.17
2023-03-19T08:44:25.137Z,33.05
2023-03-19T08:44:56.595Z,33.15
2023-03-19T08:45:28.080Z,33.20
2023-03-19T08:45:59.564Z,33.19